Current Weather

Teniente Col Carmelo Peralta

Teniente Col Carmelo Peralta, Paraguay (SGCO)

Report from: Saturday, February 4, 2023 9:00 PM -03
Current time: Sunday, February 5, 2023 12:44 AM -03

Nearby weather
Weather history
Weather forecast

Temperature27.0°C (80.6°F)
Heat index28.7°C (83.7°F)
Dew point20.0°C (68.0°F)
Winds Calm
Clouds Sky clear
Altimeter29.83 in.Hg (1010 mB)
Relative humidity66 %
Density altitude1,810 ft. (552 m)
Remarks Ceiling and visibility OK
Flight conditions Visual Meteorological Conditions
Raw dataSGCO 050000Z 00000KT CAVOK 27/20 Q1010
An unhandled exception has occurred. See browser dev tools for details. Reload 🗙